Pembine, Wisconsin
Current Conditions -  °F | °C
As of 7:54 PM on Saturday 20 Dec 2014 (Local Time) from KIMT Reporting Station
Overcast Overcast  
Wind Chill: 20°   Ceiling: 2900
Heat Index: 27°   Visibility: 8mi
Dew Point: 23°   Wind: 6mph
Humidity: 85%   Direction: 140°SE
Pressure: 30.17"   Gusts: NA
Location:  45.64°N, 87.99°W
Report Text: KIMT 210154Z AUTO 14005KT 8SM OVC029 M03/M05 A3017 RMK AO2 SLP237 T10281050
Loading
Personal Weather Stations






























Interactive Weather Map New forecast layout! Learn more

10-Day Weather Forecast

Advertisements
Track Severe Weather on mobile